createdAt,value
2023-03-04T00:01:13.895Z,101931.16
2023-03-04T00:06:06.010Z,101867.78
2023-03-04T00:10:57.657Z,101897.56
2023-03-04T00:15:49.302Z,101907.69
2023-03-04T00:20:40.963Z,101796.66
2023-03-04T00:25:33.602Z,101908.38
2023-03-04T00:30:25.408Z,101874.88
2023-03-04T00:35:17.134Z,101886.03
2023-03-04T00:40:10.313Z,101961.19
2023-03-04T00:45:02.022Z,101901.00
2023-03-04T00:49:53.958Z,101853.03
2023-03-04T00:54:46.057Z,101604.00
2023-03-04T00:59:37.781Z,101900.09
2023-03-04T01:04:29.596Z,101632.94
2023-03-04T01:09:21.291Z,101943.97
2023-03-04T01:14:13.095Z,101780.09
2023-03-04T01:19:04.752Z,101362.03
2023-03-04T01:23:56.484Z,101786.25
2023-03-04T01:28:48.282Z,101689.00
2023-03-04T01:33:40.133Z,101587.34
2023-03-04T01:38:31.835Z,101918.09
2023-03-04T01:43:28.290Z,101662.13
2023-03-04T01:48:25.757Z,101721.91
2023-03-04T01:53:22.627Z,101888.44
2023-03-04T01:58:14.308Z,101903.59
2023-03-04T02:03:12.473Z,101900.16
2023-03-04T02:08:05.232Z,101839.91
2023-03-04T02:12:57.371Z,101882.09
2023-03-04T02:17:49.332Z,101877.69
2023-03-04T02:22:51.625Z,101502.41
2023-03-04T02:27:43.525Z,101878.91
2023-03-04T02:32:35.242Z,101787.97
2023-03-04T02:37:26.952Z,101815.25
2023-03-04T02:42:19.380Z,101817.84
2023-03-04T02:47:13.087Z,101871.53
2023-03-04T02:52:18.482Z,101795.59
2023-03-04T02:57:12.566Z,101845.41
2023-03-04T03:02:07.788Z,101861.63
2023-03-04T03:06:59.963Z,101835.69
2023-03-04T03:11:52.501Z,101825.88
2023-03-04T03:16:44.749Z,101753.63
2023-03-04T03:21:36.641Z,101594.00
2023-03-04T03:26:28.407Z,101276.19
2023-03-04T03:31:20.194Z,101781.84
2023-03-04T03:36:12.062Z,101694.63
2023-03-04T03:41:03.873Z,101776.09
2023-03-04T03:45:55.615Z,101324.03
2023-03-04T03:50:47.759Z,101784.81
2023-03-04T03:55:39.416Z,101690.13
2023-03-04T04:00:31.429Z,101834.91
2023-03-04T04:05:23.084Z,101734.97
2023-03-04T04:10:15.531Z,101683.81
2023-03-04T04:15:08.013Z,101757.06
2023-03-04T04:19:59.689Z,101731.97
2023-03-04T04:24:51.415Z,101616.84
2023-03-04T04:29:43.069Z,101834.22
2023-03-04T04:34:35.177Z,101828.88
2023-03-04T04:39:26.915Z,101583.19
2023-03-04T04:44:18.548Z,101755.31
2023-03-04T04:49:10.720Z,101763.84
2023-03-04T04:54:03.098Z,101844.69
2023-03-04T04:58:58.264Z,101722.06
2023-03-04T05:03:50.660Z,101829.06
2023-03-04T05:08:42.931Z,101713.63
2023-03-04T05:13:34.956Z,101690.03
2023-03-04T05:18:27.804Z,101835.38
2023-03-04T05:23:20.041Z,101831.53
2023-03-04T05:28:12.556Z,101804.50
2023-03-04T05:33:04.285Z,101823.88
2023-03-04T05:37:55.973Z,101746.78
2023-03-04T05:42:47.633Z,101835.09
2023-03-04T05:47:39.328Z,101610.50
2023-03-04T05:52:31.131Z,101604.63
2023-03-04T05:57:22.788Z,101763.13
2023-03-04T06:02:14.409Z,101852.00
2023-03-04T06:07:06.125Z,101645.28
2023-03-04T06:11:57.717Z,101670.63
2023-03-04T06:16:49.421Z,101743.09
2023-03-04T06:21:41.097Z,101409.56
2023-03-04T06:26:33.711Z,101455.91
2023-03-04T06:31:25.518Z,101710.75
2023-03-04T06:36:17.447Z,101813.78
2023-03-04T06:41:13.180Z,101870.59
2023-03-04T06:46:07.730Z,101761.81
2023-03-04T06:51:04.386Z,101658.38
2023-03-04T06:55:56.793Z,101853.97
2023-03-04T07:00:48.500Z,101879.75
2023-03-04T07:05:40.370Z,101797.13
2023-03-04T07:10:32.033Z,101771.75
2023-03-04T07:15:23.674Z,101885.84
2023-03-04T07:20:15.553Z,101842.47
2023-03-04T07:25:07.671Z,101828.25
2023-03-04T07:29:59.499Z,101474.56
2023-03-04T07:34:51.522Z,101903.78
2023-03-04T07:39:43.279Z,101897.75
2023-03-04T07:44:35.739Z,101741.88
2023-03-04T07:49:27.460Z,101808.97
2023-03-04T07:54:20.250Z,101903.94
2023-03-04T07:59:11.911Z,101698.75
2023-03-04T08:04:06.003Z,101523.94
2023-03-04T08:09:06.518Z,101748.31
2023-03-04T08:13:58.808Z,101775.41
2023-03-04T08:18:54.125Z,101674.09
2023-03-04T08:23:46.642Z,101623.78
2023-03-04T08:28:38.821Z,101921.53
2023-03-04T08:33:31.879Z,101825.38
2023-03-04T08:38:23.774Z,101886.56
2023-03-04T08:43:15.379Z,101745.28
2023-03-04T08:48:07.201Z,101843.00
2023-03-04T08:52:59.265Z,101889.22
2023-03-04T08:57:50.979Z,101889.31
2023-03-04T09:02:42.602Z,101900.25
2023-03-04T09:07:34.341Z,101768.34
2023-03-04T09:12:26.207Z,101748.50
2023-03-04T09:17:17.889Z,101849.66
2023-03-04T09:22:09.500Z,101915.28
2023-03-04T09:27:01.174Z,101905.25
2023-03-04T09:31:52.772Z,101825.19
2023-03-04T09:36:44.461Z,101903.88
2023-03-04T09:41:44.191Z,101892.78
2023-03-04T09:46:39.795Z,101708.47
2023-03-04T09:51:40.821Z,101910.91
2023-03-04T09:56:36.593Z,101913.03
2023-03-04T10:01:39.957Z,101917.44
2023-03-04T10:06:32.495Z,101793.66
2023-03-04T10:11:40.851Z,101908.06
2023-03-04T10:16:42.757Z,101850.88
2023-03-04T10:21:45.054Z,101896.19
2023-03-04T10:26:37.671Z,101828.41
2023-03-04T10:31:38.318Z,101704.22
2023-03-04T10:36:29.958Z,101895.06
2023-03-04T10:41:26.143Z,101892.94
2023-03-04T10:46:20.843Z,101773.72
2023-03-04T10:51:23.580Z,101885.44
2023-03-04T10:56:45.512Z,101880.03
2023-03-04T11:01:37.637Z,101776.97
2023-03-04T11:06:31.803Z,101832.50
2023-03-04T11:11:34.748Z,101837.88
2023-03-04T11:16:32.492Z,101870.69
2023-03-04T11:21:26.916Z,101833.59
2023-03-04T11:26:26.280Z,101864.66
2023-03-04T11:31:29.521Z,101780.69
2023-03-04T11:36:46.120Z,101848.28
2023-03-04T11:41:51.206Z,101768.31
2023-03-04T11:47:03.425Z,101841.72
2023-03-04T11:52:13.457Z,101846.13
2023-03-04T11:57:18.538Z,101798.97
2023-03-04T12:02:18.019Z,101770.41
2023-03-04T12:07:36.042Z,101821.34
2023-03-04T12:12:27.622Z,101808.59
2023-03-04T12:17:47.047Z,101601.53
2023-03-04T12:22:49.832Z,101756.91
2023-03-04T12:28:03.246Z,101757.59
2023-03-04T12:33:23.168Z,101712.16
2023-03-04T12:38:46.054Z,101777.53
2023-03-04T12:43:43.353Z,101775.84
2023-03-04T12:49:20.015Z,101769.00
2023-03-04T12:54:31.352Z,101756.06
2023-03-04T12:59:26.512Z,101755.16
2023-03-04T13:04:40.577Z,101547.03
2023-03-04T13:09:43.499Z,101743.75
2023-03-04T13:14:35.382Z,101730.94
2023-03-04T13:19:42.449Z,101734.66
2023-03-04T13:24:50.968Z,101728.03
2023-03-04T13:29:42.640Z,101649.13
2023-03-04T13:34:46.616Z,101715.78
2023-03-04T13:39:38.288Z,101586.94
2023-03-04T13:44:58.198Z,101703.47
2023-03-04T13:49:49.885Z,101682.06
2023-03-04T13:54:41.732Z,101703.06
2023-03-04T13:59:44.859Z,101383.78
2023-03-04T14:04:42.155Z,101547.38
2023-03-04T14:09:35.316Z,101541.72
2023-03-04T14:14:30.677Z,101571.53
2023-03-04T14:19:27.927Z,101690.78
2023-03-04T14:24:21.070Z,101465.78
2023-03-04T14:29:29.537Z,101680.72
2023-03-04T14:34:29.930Z,101679.47
2023-03-04T14:39:24.806Z,101668.16
2023-03-04T14:44:22.370Z,101673.81
2023-03-04T14:49:15.281Z,101659.69
2023-03-04T14:54:08.304Z,101660.81
2023-03-04T14:59:00.081Z,101540.03
2023-03-04T15:03:55.760Z,101646.66
2023-03-04T15:08:55.572Z,101644.47
2023-03-04T15:13:50.388Z,101639.47
2023-03-04T15:19:19.019Z,101635.47
2023-03-04T15:24:13.543Z,101642.16
2023-03-04T15:29:23.294Z,101495.34
2023-03-04T15:34:17.652Z,101561.66
2023-03-04T15:39:13.366Z,101390.75
2023-03-04T15:44:05.152Z,101622.97
2023-03-04T15:48:56.869Z,101544.09
2023-03-04T15:53:53.871Z,101554.38
2023-03-04T15:58:53.755Z,101627.75
2023-03-04T16:03:45.397Z,101527.31
2023-03-04T16:08:37.320Z,101602.00
2023-03-04T16:13:29.052Z,101467.84
2023-03-04T16:18:21.721Z,101626.97
2023-03-04T16:23:17.122Z,101623.19
2023-03-04T16:28:10.907Z,101193.06
2023-03-04T16:33:02.658Z,101473.88
2023-03-04T16:37:54.893Z,101611.94
2023-03-04T16:42:46.561Z,101607.88
2023-03-04T16:47:38.172Z,101462.78
2023-03-04T16:52:31.946Z,101287.91
2023-03-04T16:57:24.010Z,101619.31
2023-03-04T17:02:17.789Z,101621.09
2023-03-04T17:07:09.902Z,101557.00
2023-03-04T17:12:01.541Z,101509.50
2023-03-04T17:16:53.605Z,101502.34
2023-03-04T17:21:45.245Z,101283.56
2023-03-04T17:26:37.127Z,101477.63
2023-03-04T17:31:28.876Z,101482.69
2023-03-04T17:36:20.767Z,101478.28
2023-03-04T17:41:17.320Z,101605.72
2023-03-04T17:46:12.302Z,101625.63
2023-03-04T17:51:04.445Z,101276.97
2023-03-04T17:56:00.267Z,101584.47
2023-03-04T18:00:53.624Z,101325.28
2023-03-04T18:05:45.310Z,101496.59
2023-03-04T18:10:37.167Z,101515.22
2023-03-04T18:15:28.910Z,101604.03
2023-03-04T18:20:20.696Z,101445.59
2023-03-04T18:25:13.056Z,101017.28
2023-03-04T18:30:05.944Z,101534.56
2023-03-04T18:34:57.946Z,101506.75
2023-03-04T18:39:49.991Z,101346.97
2023-03-04T18:44:42.745Z,101489.75
2023-03-04T18:49:34.505Z,101361.28
2023-03-04T18:54:26.483Z,101445.69
2023-03-04T18:59:22.418Z,101618.22
2023-03-04T19:04:16.172Z,101298.22
2023-03-04T19:09:08.540Z,101488.34
2023-03-04T19:14:00.363Z,101416.56
2023-03-04T19:18:52.413Z,101163.38
2023-03-04T19:23:44.570Z,101618.72
2023-03-04T19:28:36.694Z,101438.00
2023-03-04T19:33:28.668Z,101553.97
2023-03-04T19:38:20.419Z,101429.91
2023-03-04T19:43:12.968Z,101632.41
2023-03-04T19:48:05.011Z,101393.19
2023-03-04T19:52:56.804Z,101397.13
2023-03-04T19:57:48.541Z,101636.63
2023-03-04T20:02:40.351Z,101568.38
2023-03-04T20:07:32.449Z,101614.91
2023-03-04T20:12:24.175Z,101395.81
2023-03-04T20:17:16.064Z,101068.41
2023-03-04T20:22:08.990Z,101455.00
2023-03-04T20:27:00.878Z,101557.56
2023-03-04T20:31:52.964Z,101323.50
2023-03-04T20:36:44.619Z,101611.47
2023-03-04T20:41:37.057Z,101504.31
2023-03-04T20:46:34.931Z,101634.66
2023-03-04T20:51:31.555Z,101587.47
2023-03-04T20:56:23.770Z,101412.38
2023-03-04T21:01:15.953Z,101385.06
2023-03-04T21:06:10.485Z,101627.78
2023-03-04T21:11:03.210Z,101572.59
2023-03-04T21:15:54.874Z,101481.69
2023-03-04T21:20:48.471Z,101549.44
2023-03-04T21:25:41.450Z,101599.72
2023-03-04T21:30:33.423Z,101426.69
2023-03-04T21:35:25.278Z,101493.91
2023-03-04T21:40:17.061Z,101293.38
2023-03-04T21:45:10.899Z,101605.31
2023-03-04T21:50:02.618Z,101350.59
2023-03-04T21:54:55.963Z,101397.06
2023-03-04T21:59:49.140Z,101606.59
2023-03-04T22:04:41.283Z,101476.47
2023-03-04T22:09:33.831Z,101625.59
2023-03-04T22:14:29.317Z,101475.41
2023-03-04T22:19:21.329Z,101431.84
2023-03-04T22:24:13.107Z,101601.41
2023-03-04T22:29:05.526Z,101484.13
2023-03-04T22:34:03.676Z,101591.09
2023-03-04T22:38:55.898Z,101541.06
2023-03-04T22:43:48.649Z,101505.50
2023-03-04T22:48:40.598Z,101339.56
2023-03-04T22:53:32.226Z,101598.72
2023-03-04T22:58:23.998Z,101494.88
2023-03-04T23:03:15.849Z,101297.22
2023-03-04T23:08:08.066Z,101447.94
2023-03-04T23:12:59.956Z,101566.41
2023-03-04T23:17:51.633Z,101373.25
2023-03-04T23:22:44.507Z,101287.31
2023-03-04T23:27:37.608Z,101295.19
2023-03-04T23:32:29.282Z,101401.00
2023-03-04T23:37:23.530Z,101459.50
2023-03-04T23:42:15.848Z,101487.97
2023-03-04T23:47:07.660Z,101486.59
2023-03-04T23:52:00.024Z,101415.03
2023-03-04T23:56:52.656Z,101566.41
